sensor_id;sensor_type;location;lat;lon;timestamp;temperature;humidity
41344;DHT22;27089;50.022;7.604;2023-01-16T00:01:47;3.90;99.90
41344;DHT22;27089;50.022;7.604;2023-01-16T00:04:15;3.80;99.90
41344;DHT22;27089;50.022;7.604;2023-01-16T00:06:42;3.80;99.90
41344;DHT22;27089;50.022;7.604;2023-01-16T00:09:09;3.80;99.90
41344;DHT22;27089;50.022;7.604;2023-01-16T00:11:38;3.80;99.90
41344;DHT22;27089;50.022;7.604;2023-01-16T00:14:05;3.70;99.90
41344;DHT22;27089;50.022;7.604;2023-01-16T00:16:32;3.80;99.90
41344;DHT22;27089;50.022;7.604;2023-01-16T00:18:59;3.80;99.90
41344;DHT22;27089;50.022;7.604;2023-01-16T00:21:27;3.80;99.90
41344;DHT22;27089;50.022;7.604;2023-01-16T00:23:54;3.90;99.90
41344;DHT22;27089;50.022;7.604;2023-01-16T00:26:22;3.90;99.90
41344;DHT22;27089;50.022;7.604;2023-01-16T00:28:50;3.90;99.90
41344;DHT22;27089;50.022;7.604;2023-01-16T00:31:17;3.90;99.90
41344;DHT22;27089;50.022;7.604;2023-01-16T00:33:44;3.90;99.90
41344;DHT22;27089;50.022;7.604;2023-01-16T00:36:12;4.00;99.90
41344;DHT22;27089;50.022;7.604;2023-01-16T00:38:39;4.00;99.90
41344;DHT22;27089;50.022;7.604;2023-01-16T00:41:06;4.10;99.90
41344;DHT22;27089;50.022;7.604;2023-01-16T00:43:34;4.10;99.90
41344;DHT22;27089;50.022;7.604;2023-01-16T00:46:02;4.10;99.90
41344;DHT22;27089;50.022;7.604;2023-01-16T00:48:29;4.10;99.90
41344;DHT22;27089;50.022;7.604;2023-01-16T00:50:56;4.10;99.90
41344;DHT22;27089;50.022;7.604;2023-01-16T00:53:23;4.10;99.90
41344;DHT22;27089;50.022;7.604;2023-01-16T00:55:50;4.10;99.90
41344;DHT22;27089;50.022;7.604;2023-01-16T00:58:18;4.00;99.90
41344;DHT22;27089;50.022;7.604;2023-01-16T01:00:45;4.10;99.90
41344;DHT22;27089;50.022;7.604;2023-01-16T01:03:13;4.10;99.90
41344;DHT22;27089;50.022;7.604;2023-01-16T01:05:40;4.20;99.90
41344;DHT22;27089;50.022;7.604;2023-01-16T01:08:08;4.20;99.90
41344;DHT22;27089;50.022;7.604;2023-01-16T01:10:36;4.20;99.90
41344;DHT22;27089;50.022;7.604;2023-01-16T01:13:04;4.20;99.90
41344;DHT22;27089;50.022;7.604;2023-01-16T01:15:31;4.10;99.90
41344;DHT22;27089;50.022;7.604;2023-01-16T01:17:58;4.10;99.90
41344;DHT22;27089;50.022;7.604;2023-01-16T01:20:27;4.00;99.90
41344;DHT22;27089;50.022;7.604;2023-01-16T01:22:54;4.00;99.90
41344;DHT22;27089;50.022;7.604;2023-01-16T01:25:20;4.00;99.90
41344;DHT22;27089;50.022;7.604;2023-01-16T01:27:48;3.90;99.90
41344;DHT22;27089;50.022;7.604;2023-01-16T01:30:15;3.90;99.90
41344;DHT22;27089;50.022;7.604;2023-01-16T01:32:43;3.90;99.90
41344;DHT22;27089;50.022;7.604;2023-01-16T01:35:09;3.90;99.90
41344;DHT22;27089;50.022;7.604;2023-01-16T01:37:38;3.80;99.90
41344;DHT22;27089;50.022;7.604;2023-01-16T01:40:06;3.80;99.90
41344;DHT22;27089;50.022;7.604;2023-01-16T01:42:37;3.80;99.90
41344;DHT22;27089;50.022;7.604;2023-01-16T01:45:16;3.80;99.90
41344;DHT22;27089;50.022;7.604;2023-01-16T01:47:46;3.80;99.90
41344;DHT22;27089;50.022;7.604;2023-01-16T01:50:19;3.80;99.90
41344;DHT22;27089;50.022;7.604;2023-01-16T01:52:50;3.80;99.90
41344;DHT22;27089;50.022;7.604;2023-01-16T01:55:19;3.90;99.90
41344;DHT22;27089;50.022;7.604;2023-01-16T01:57:49;3.90;99.90
41344;DHT22;27089;50.022;7.604;2023-01-16T02:00:19;4.00;99.90
41344;DHT22;27089;50.022;7.604;2023-01-16T02:02:50;4.00;99.90
41344;DHT22;27089;50.022;7.604;2023-01-16T02:05:24;4.00;99.90
41344;DHT22;27089;50.022;7.604;2023-01-16T02:07:53;4.10;99.90
41344;DHT22;27089;50.022;7.604;2023-01-16T02:10:27;4.10;99.90
41344;DHT22;27089;50.022;7.604;2023-01-16T02:12:56;4.20;99.90
41344;DHT22;27089;50.022;7.604;2023-01-16T02:15:24;4.20;99.90
41344;DHT22;27089;50.022;7.604;2023-01-16T02:17:51;4.20;99.90
41344;DHT22;27089;50.022;7.604;2023-01-16T02:20:47;4.10;99.90
41344;DHT22;27089;50.022;7.604;2023-01-16T02:23:41;4.10;99.90
41344;DHT22;27089;50.022;7.604;2023-01-16T02:26:42;4.10;99.90
41344;DHT22;27089;50.022;7.604;2023-01-16T02:32:50;4.20;99.90
41344;DHT22;27089;50.022;7.604;2023-01-16T02:35:30;4.20;99.90
41344;DHT22;27089;50.022;7.604;2023-01-16T02:38:01;4.20;99.90
41344;DHT22;27089;50.022;7.604;2023-01-16T02:40:39;4.30;99.90
41344;DHT22;27089;50.022;7.604;2023-01-16T02:43:19;4.30;99.90
41344;DHT22;27089;50.022;7.604;2023-01-16T02:45:54;4.30;99.90
41344;DHT22;27089;50.022;7.604;2023-01-16T02:48:31;4.30;99.90
41344;DHT22;27089;50.022;7.604;2023-01-16T02:51:03;4.30;99.90
41344;DHT22;27089;50.022;7.604;2023-01-16T02:53:36;4.30;99.90
41344;DHT22;27089;50.022;7.604;2023-01-16T02:56:06;4.30;99.90
41344;DHT22;27089;50.022;7.604;2023-01-16T02:58:40;4.30;99.90
41344;DHT22;27089;50.022;7.604;2023-01-16T03:01:08;4.30;99.90
41344;DHT22;27089;50.022;7.604;2023-01-16T03:03:41;4.20;99.90
41344;DHT22;27089;50.022;7.604;2023-01-16T03:06:31;4.20;99.90
41344;DHT22;27089;50.022;7.604;2023-01-16T03:12:03;4.10;99.90
41344;DHT22;27089;50.022;7.604;2023-01-16T03:14:36;4.10;99.90
41344;DHT22;27089;50.022;7.604;2023-01-16T03:17:17;4.10;99.90
41344;DHT22;27089;50.022;7.604;2023-01-16T03:19:59;4.10;99.90
41344;DHT22;27089;50.022;7.604;2023-01-16T03:22:33;4.10;99.90
41344;DHT22;27089;50.022;7.604;2023-01-16T03:25:18;4.20;99.90
41344;DHT22;27089;50.022;7.604;2023-01-16T03:27:53;4.10;99.90
41344;DHT22;27089;50.022;7.604;2023-01-16T03:30:26;4.10;99.90
41344;DHT22;27089;50.022;7.604;2023-01-16T03:32:59;4.00;99.90
41344;DHT22;27089;50.022;7.604;2023-01-16T03:35:31;3.90;99.90
41344;DHT22;27089;50.022;7.604;2023-01-16T03:38:03;3.90;99.90
41344;DHT22;27089;50.022;7.604;2023-01-16T03:40:36;4.00;99.90
41344;DHT22;27089;50.022;7.604;2023-01-16T03:43:06;4.00;99.90
41344;DHT22;27089;50.022;7.604;2023-01-16T03:45:40;4.00;99.90
41344;DHT22;27089;50.022;7.604;2023-01-16T03:48:13;4.10;99.90
41344;DHT22;27089;50.022;7.604;2023-01-16T03:50:49;4.10;99.90
41344;DHT22;27089;50.022;7.604;2023-01-16T03:53:23;4.20;99.90
41344;DHT22;27089;50.022;7.604;2023-01-16T03:55:59;4.20;99.90
41344;DHT22;27089;50.022;7.604;2023-01-16T03:58:31;4.20;99.90
41344;DHT22;27089;50.022;7.604;2023-01-16T04:01:04;4.30;99.90
41344;DHT22;27089;50.022;7.604;2023-01-16T04:03:41;4.30;99.90
41344;DHT22;27089;50.022;7.604;2023-01-16T04:06:16;4.30;99.90
41344;DHT22;27089;50.022;7.604;2023-01-16T04:08:45;4.30;99.90
41344;DHT22;27089;50.022;7.604;2023-01-16T04:11:14;4.30;99.90
41344;DHT22;27089;50.022;7.604;2023-01-16T04:13:43;4.30;99.90
41344;DHT22;27089;50.022;7.604;2023-01-16T04:16:13;4.30;99.90
41344;DHT22;27089;50.022;7.604;2023-01-16T04:18:44;4.30;99.90
41344;DHT22;27089;50.022;7.604;2023-01-16T04:21:13;4.20;99.90
41344;DHT22;27089;50.022;7.604;2023-01-16T04:23:40;4.20;99.90
41344;DHT22;27089;50.022;7.604;2023-01-16T04:26:08;4.20;99.90
41344;DHT22;27089;50.022;7.604;2023-01-16T04:28:35;4.30;99.90
41344;DHT22;27089;50.022;7.604;2023-01-16T04:31:02;4.30;99.90
41344;DHT22;27089;50.022;7.604;2023-01-16T04:33:29;4.40;99.90
41344;DHT22;27089;50.022;7.604;2023-01-16T04:35:56;4.40;99.90
41344;DHT22;27089;50.022;7.604;2023-01-16T04:38:24;4.40;99.90
41344;DHT22;27089;50.022;7.604;2023-01-16T04:40:53;4.40;99.90
41344;DHT22;27089;50.022;7.604;2023-01-16T04:43:20;4.40;99.90
41344;DHT22;27089;50.022;7.604;2023-01-16T04:45:47;4.40;99.90
41344;DHT22;27089;50.022;7.604;2023-01-16T04:48:14;4.40;99.90
41344;DHT22;27089;50.022;7.604;2023-01-16T04:50:41;4.40;99.90
41344;DHT22;27089;50.022;7.604;2023-01-16T04:53:08;4.40;99.90
41344;DHT22;27089;50.022;7.604;2023-01-16T04:55:36;4.50;99.90
41344;DHT22;27089;50.022;7.604;2023-01-16T04:58:03;4.40;99.90
41344;DHT22;27089;50.022;7.604;2023-01-16T05:00:30;4.40;99.90
41344;DHT22;27089;50.022;7.604;2023-01-16T05:02:57;4.40;99.90
41344;DHT22;27089;50.022;7.604;2023-01-16T05:05:24;4.40;99.90
41344;DHT22;27089;50.022;7.604;2023-01-16T05:07:51;4.40;99.90
41344;DHT22;27089;50.022;7.604;2023-01-16T05:10:32;4.40;99.90
41344;DHT22;27089;50.022;7.604;2023-01-16T05:13:00;4.40;99.90
41344;DHT22;27089;50.022;7.604;2023-01-16T05:15:27;4.40;99.90
41344;DHT22;27089;50.022;7.604;2023-01-16T05:17:54;4.40;99.90
41344;DHT22;27089;50.022;7.604;2023-01-16T05:20:22;4.40;99.90
41344;DHT22;27089;50.022;7.604;2023-01-16T05:22:49;4.40;99.90
41344;DHT22;27089;50.022;7.604;2023-01-16T05:25:16;4.30;99.90
41344;DHT22;27089;50.022;7.604;2023-01-16T05:27:47;4.30;99.90
41344;DHT22;27089;50.022;7.604;2023-01-16T05:30:16;4.30;99.90
41344;DHT22;27089;50.022;7.604;2023-01-16T05:32:43;4.30;99.90
41344;DHT22;27089;50.022;7.604;2023-01-16T05:35:10;4.30;99.90
41344;DHT22;27089;50.022;7.604;2023-01-16T05:37:37;4.30;99.90
41344;DHT22;27089;50.022;7.604;2023-01-16T05:40:05;4.30;99.90
41344;DHT22;27089;50.022;7.604;2023-01-16T05:42:32;4.30;99.90
41344;DHT22;27089;50.022;7.604;2023-01-16T05:44:59;4.30;99.90
41344;DHT22;27089;50.022;7.604;2023-01-16T05:47:27;4.30;99.90
41344;DHT22;27089;50.022;7.604;2023-01-16T05:49:54;4.30;99.90
41344;DHT22;27089;50.022;7.604;2023-01-16T05:52:23;4.30;99.90
41344;DHT22;27089;50.022;7.604;2023-01-16T05:54:51;4.40;99.90
41344;DHT22;27089;50.022;7.604;2023-01-16T05:57:18;4.30;99.90
41344;DHT22;27089;50.022;7.604;2023-01-16T05:59:48;4.30;99.90
41344;DHT22;27089;50.022;7.604;2023-01-16T06:02:15;4.30;99.90
41344;DHT22;27089;50.022;7.604;2023-01-16T06:04:43;4.20;99.90
41344;DHT22;27089;50.022;7.604;2023-01-16T06:07:11;4.20;99.90
41344;DHT22;27089;50.022;7.604;2023-01-16T06:09:38;4.30;99.90
41344;DHT22;27089;50.022;7.604;2023-01-16T06:12:06;4.30;99.90
41344;DHT22;27089;50.022;7.604;2023-01-16T06:14:33;4.30;99.90
41344;DHT22;27089;50.022;7.604;2023-01-16T06:17:00;4.30;99.90
41344;DHT22;27089;50.022;7.604;2023-01-16T06:19:27;4.30;99.90
41344;DHT22;27089;50.022;7.604;2023-01-16T06:21:56;4.30;99.90
41344;DHT22;27089;50.022;7.604;2023-01-16T06:24:23;4.30;99.90
41344;DHT22;27089;50.022;7.604;2023-01-16T06:26:50;4.30;99.90
41344;DHT22;27089;50.022;7.604;2023-01-16T06:29:17;4.20;99.90
41344;DHT22;27089;50.022;7.604;2023-01-16T06:31:44;4.30;99.90
41344;DHT22;27089;50.022;7.604;2023-01-16T06:34:11;4.20;99.90
41344;DHT22;27089;50.022;7.604;2023-01-16T06:36:38;4.10;99.90
41344;DHT22;27089;50.022;7.604;2023-01-16T06:39:09;4.00;99.90
41344;DHT22;27089;50.022;7.604;2023-01-16T06:41:36;4.00;99.90
41344;DHT22;27089;50.022;7.604;2023-01-16T06:44:03;3.90;99.90
41344;DHT22;27089;50.022;7.604;2023-01-16T06:46:30;3.90;99.90
41344;DHT22;27089;50.022;7.604;2023-01-16T06:48:57;3.80;99.90
41344;DHT22;27089;50.022;7.604;2023-01-16T06:51:24;3.80;99.90
41344;DHT22;27089;50.022;7.604;2023-01-16T06:53:51;3.80;99.90
41344;DHT22;27089;50.022;7.604;2023-01-16T06:56:19;3.80;99.90
41344;DHT22;27089;50.022;7.604;2023-01-16T06:58:46;3.80;99.90
41344;DHT22;27089;50.022;7.604;2023-01-16T07:01:13;3.80;99.90
41344;DHT22;27089;50.022;7.604;2023-01-16T07:03:40;3.70;99.90
41344;DHT22;27089;50.022;7.604;2023-01-16T07:06:07;3.70;99.90
41344;DHT22;27089;50.022;7.604;2023-01-16T07:08:34;3.60;99.90
41344;DHT22;27089;50.022;7.604;2023-01-16T07:11:01;3.60;99.90
41344;DHT22;27089;50.022;7.604;2023-01-16T07:13:29;3.60;99.90
41344;DHT22;27089;50.022;7.604;2023-01-16T07:15:56;3.60;99.90
41344;DHT22;27089;50.022;7.604;2023-01-16T07:18:41;3.60;99.90
41344;DHT22;27089;50.022;7.604;2023-01-16T07:21:28;3.50;99.90
41344;DHT22;27089;50.022;7.604;2023-01-16T07:24:16;3.50;99.90
41344;DHT22;27089;50.022;7.604;2023-01-16T07:26:46;3.50;99.90
41344;DHT22;27089;50.022;7.604;2023-01-16T07:29:16;3.50;99.90
41344;DHT22;27089;50.022;7.604;2023-01-16T07:31:43;3.50;99.90
41344;DHT22;27089;50.022;7.604;2023-01-16T07:34:10;3.50;99.90
41344;DHT22;27089;50.022;7.604;2023-01-16T07:36:37;3.50;99.90
41344;DHT22;27089;50.022;7.604;2023-01-16T07:39:04;3.50;99.90
41344;DHT22;27089;50.022;7.604;2023-01-16T07:41:31;3.60;99.90
41344;DHT22;27089;50.022;7.604;2023-01-16T07:43:58;3.50;99.90
41344;DHT22;27089;50.022;7.604;2023-01-16T07:46:26;3.50;99.90
41344;DHT22;27089;50.022;7.604;2023-01-16T07:48:53;3.60;99.90
41344;DHT22;27089;50.022;7.604;2023-01-16T07:51:22;3.50;99.90
41344;DHT22;27089;50.022;7.604;2023-01-16T07:53:49;3.30;99.90
41344;DHT22;27089;50.022;7.604;2023-01-16T07:56:16;3.20;99.90
41344;DHT22;27089;50.022;7.604;2023-01-16T07:58:43;3.10;99.90
41344;DHT22;27089;50.022;7.604;2023-01-16T08:01:11;2.90;99.90
41344;DHT22;27089;50.022;7.604;2023-01-16T08:03:39;2.70;99.90
41344;DHT22;27089;50.022;7.604;2023-01-16T08:06:07;2.50;99.90
41344;DHT22;27089;50.022;7.604;2023-01-16T08:08:34;2.40;99.90
41344;DHT22;27089;50.022;7.604;2023-01-16T08:11:01;2.30;99.90
41344;DHT22;27089;50.022;7.604;2023-01-16T08:13:50;2.20;99.90
41344;DHT22;27089;50.022;7.604;2023-01-16T08:16:17;2.20;99.90
41344;DHT22;27089;50.022;7.604;2023-01-16T08:18:46;2.20;99.90
41344;DHT22;27089;50.022;7.604;2023-01-16T08:21:15;2.20;99.90
41344;DHT22;27089;50.022;7.604;2023-01-16T08:23:42;2.30;99.90
41344;DHT22;27089;50.022;7.604;2023-01-16T08:26:10;2.30;99.90
41344;DHT22;27089;50.022;7.604;2023-01-16T08:28:37;2.40;99.90
41344;DHT22;27089;50.022;7.604;2023-01-16T08:31:05;2.40;99.90
41344;DHT22;27089;50.022;7.604;2023-01-16T08:33:35;2.40;99.90
41344;DHT22;27089;50.022;7.604;2023-01-16T08:36:06;2.40;99.90
41344;DHT22;27089;50.022;7.604;2023-01-16T08:38:33;2.50;99.90
41344;DHT22;27089;50.022;7.604;2023-01-16T08:41:00;2.50;99.90
41344;DHT22;27089;50.022;7.604;2023-01-16T08:43:27;2.50;99.90
41344;DHT22;27089;50.022;7.604;2023-01-16T08:46:17;2.50;99.90
41344;DHT22;27089;50.022;7.604;2023-01-16T08:49:02;2.40;99.90
41344;DHT22;27089;50.022;7.604;2023-01-16T08:51:49;2.40;99.90
41344;DHT22;27089;50.022;7.604;2023-01-16T08:54:16;2.50;99.90
41344;DHT22;27089;50.022;7.604;2023-01-16T08:56:43;2.50;99.90
41344;DHT22;27089;50.022;7.604;2023-01-16T08:59:10;2.40;99.90
41344;DHT22;27089;50.022;7.604;2023-01-16T09:01:37;2.40;99.90
41344;DHT22;27089;50.022;7.604;2023-01-16T09:04:05;2.40;99.90
41344;DHT22;27089;50.022;7.604;2023-01-16T09:06:32;2.50;99.90
41344;DHT22;27089;50.022;7.604;2023-01-16T09:09:03;2.50;99.90
41344;DHT22;27089;50.022;7.604;2023-01-16T09:11:30;2.50;99.90
41344;DHT22;27089;50.022;7.604;2023-01-16T09:14:15;2.50;99.90
41344;DHT22;27089;50.022;7.604;2023-01-16T09:16:42;2.50;99.90
41344;DHT22;27089;50.022;7.604;2023-01-16T09:19:09;2.50;99.90
41344;DHT22;27089;50.022;7.604;2023-01-16T09:21:36;2.50;99.90
41344;DHT22;27089;50.022;7.604;2023-01-16T09:24:05;2.50;99.90
41344;DHT22;27089;50.022;7.604;2023-01-16T09:26:33;2.50;99.90
41344;DHT22;27089;50.022;7.604;2023-01-16T09:28:59;2.60;99.90
41344;DHT22;27089;50.022;7.604;2023-01-16T09:31:26;2.60;99.90
41344;DHT22;27089;50.022;7.604;2023-01-16T09:33:53;2.70;99.90
41344;DHT22;27089;50.022;7.604;2023-01-16T09:36:21;2.70;99.90
41344;DHT22;27089;50.022;7.604;2023-01-16T09:38:48;2.70;99.90
41344;DHT22;27089;50.022;7.604;2023-01-16T09:41:18;2.70;99.90
41344;DHT22;27089;50.022;7.604;2023-01-16T09:43:59;2.70;99.90
41344;DHT22;27089;50.022;7.604;2023-01-16T09:46:28;2.80;99.90
41344;DHT22;27089;50.022;7.604;2023-01-16T09:48:58;2.80;99.90
41344;DHT22;27089;50.022;7.604;2023-01-16T09:51:36;2.80;99.90
41344;DHT22;27089;50.022;7.604;2023-01-16T09:54:05;2.80;99.90
41344;DHT22;27089;50.022;7.604;2023-01-16T09:56:58;2.80;99.90
41344;DHT22;27089;50.022;7.604;2023-01-16T09:59:46;2.80;99.90
41344;DHT22;27089;50.022;7.604;2023-01-16T10:02:19;2.90;99.90
41344;DHT22;27089;50.022;7.604;2023-01-16T10:04:48;2.90;99.90
41344;DHT22;27089;50.022;7.604;2023-01-16T10:07:42;2.90;99.90
41344;DHT22;27089;50.022;7.604;2023-01-16T10:10:36;2.90;99.90
41344;DHT22;27089;50.022;7.604;2023-01-16T10:13:19;3.00;99.90
41344;DHT22;27089;50.022;7.604;2023-01-16T10:15:56;3.00;99.90
41344;DHT22;27089;50.022;7.604;2023-01-16T10:18:33;3.10;99.90
41344;DHT22;27089;50.022;7.604;2023-01-16T10:21:13;3.10;99.90
41344;DHT22;27089;50.022;7.604;2023-01-16T10:23:51;3.20;99.90
41344;DHT22;27089;50.022;7.604;2023-01-16T10:26:24;3.20;99.90
41344;DHT22;27089;50.022;7.604;2023-01-16T10:29:03;3.20;99.90
41344;DHT22;27089;50.022;7.604;2023-01-16T10:31:34;3.30;99.90
41344;DHT22;27089;50.022;7.604;2023-01-16T10:34:08;3.40;99.90
41344;DHT22;27089;50.022;7.604;2023-01-16T10:36:40;3.40;99.90
41344;DHT22;27089;50.022;7.604;2023-01-16T10:39:11;3.50;99.90
41344;DHT22;27089;50.022;7.604;2023-01-16T10:41:44;3.50;99.90
41344;DHT22;27089;50.022;7.604;2023-01-16T10:44:33;3.50;99.90
41344;DHT22;27089;50.022;7.604;2023-01-16T10:47:21;3.60;99.90
41344;DHT22;27089;50.022;7.604;2023-01-16T10:50:07;3.60;99.90
41344;DHT22;27089;50.022;7.604;2023-01-16T10:52:34;3.70;99.90
41344;DHT22;27089;50.022;7.604;2023-01-16T10:55:02;3.70;99.90
41344;DHT22;27089;50.022;7.604;2023-01-16T10:57:30;3.80;99.90
41344;DHT22;27089;50.022;7.604;2023-01-16T11:00:02;3.80;99.90
41344;DHT22;27089;50.022;7.604;2023-01-16T11:02:32;3.80;99.90
41344;DHT22;27089;50.022;7.604;2023-01-16T11:05:00;3.80;99.90
41344;DHT22;27089;50.022;7.604;2023-01-16T11:07:29;3.80;99.90
41344;DHT22;27089;50.022;7.604;2023-01-16T11:09:57;3.70;99.90
41344;DHT22;27089;50.022;7.604;2023-01-16T11:12:28;3.80;99.90
41344;DHT22;27089;50.022;7.604;2023-01-16T11:15:17;3.80;99.90
41344;DHT22;27089;50.022;7.604;2023-01-16T11:18:07;3.80;99.90
41344;DHT22;27089;50.022;7.604;2023-01-16T11:21:01;3.90;99.90
41344;DHT22;27089;50.022;7.604;2023-01-16T11:23:42;3.90;99.90
41344;DHT22;27089;50.022;7.604;2023-01-16T11:26:10;4.00;99.90
41344;DHT22;27089;50.022;7.604;2023-01-16T11:28:38;4.00;99.90
41344;DHT22;27089;50.022;7.604;2023-01-16T11:31:13;4.10;99.90
41344;DHT22;27089;50.022;7.604;2023-01-16T11:33:44;4.30;99.90
41344;DHT22;27089;50.022;7.604;2023-01-16T11:36:16;4.40;99.90
41344;DHT22;27089;50.022;7.604;2023-01-16T11:38:45;4.40;99.90
41344;DHT22;27089;50.022;7.604;2023-01-16T11:41:17;4.50;99.90
41344;DHT22;27089;50.022;7.604;2023-01-16T11:43:48;4.60;99.90
41344;DHT22;27089;50.022;7.604;2023-01-16T11:46:49;4.70;99.90
41344;DHT22;27089;50.022;7.604;2023-01-16T11:49:18;4.80;99.90
41344;DHT22;27089;50.022;7.604;2023-01-16T11:51:49;4.90;99.90
41344;DHT22;27089;50.022;7.604;2023-01-16T11:54:23;4.90;99.90
41344;DHT22;27089;50.022;7.604;2023-01-16T11:56:59;4.90;99.90
41344;DHT22;27089;50.022;7.604;2023-01-16T12:06:04;5.40;99.90
41344;DHT22;27089;50.022;7.604;2023-01-16T12:08:46;5.50;99.90
41344;DHT22;27089;50.022;7.604;2023-01-16T12:11:27;5.50;99.90
41344;DHT22;27089;50.022;7.604;2023-01-16T12:14:02;5.60;99.90
41344;DHT22;27089;50.022;7.604;2023-01-16T12:16:49;5.50;99.90
41344;DHT22;27089;50.022;7.604;2023-01-16T12:22:32;5.10;99.90
41344;DHT22;27089;50.022;7.604;2023-01-16T12:25:05;5.10;99.90
41344;DHT22;27089;50.022;7.604;2023-01-16T12:27:45;5.10;99.90
41344;DHT22;27089;50.022;7.604;2023-01-16T12:30:24;5.10;99.90
41344;DHT22;27089;50.022;7.604;2023-01-16T12:33:01;5.10;99.90
41344;DHT22;27089;50.022;7.604;2023-01-16T12:35:42;5.00;99.90
41344;DHT22;27089;50.022;7.604;2023-01-16T12:38:15;5.00;99.90
41344;DHT22;27089;50.022;7.604;2023-01-16T12:41:05;5.00;99.90
41344;DHT22;27089;50.022;7.604;2023-01-16T12:44:01;5.00;99.90
41344;DHT22;27089;50.022;7.604;2023-01-16T12:46:37;4.90;99.90
41344;DHT22;27089;50.022;7.604;2023-01-16T12:49:22;4.70;99.90
41344;DHT22;27089;50.022;7.604;2023-01-16T12:52:10;4.60;99.90
41344;DHT22;27089;50.022;7.604;2023-01-16T12:54:54;4.50;99.90
41344;DHT22;27089;50.022;7.604;2023-01-16T12:57:48;4.30;99.90
41344;DHT22;27089;50.022;7.604;2023-01-16T13:00:22;4.20;99.90
41344;DHT22;27089;50.022;7.604;2023-01-16T13:02:54;4.20;99.90
41344;DHT22;27089;50.022;7.604;2023-01-16T13:05:26;4.20;99.90
41344;DHT22;27089;50.022;7.604;2023-01-16T13:07:59;4.20;99.90
41344;DHT22;27089;50.022;7.604;2023-01-16T13:10:30;4.20;99.90
41344;DHT22;27089;50.022;7.604;2023-01-16T13:13:19;4.30;99.90
41344;DHT22;27089;50.022;7.604;2023-01-16T13:15:58;4.40;99.90
41344;DHT22;27089;50.022;7.604;2023-01-16T13:18:29;4.40;99.90
41344;DHT22;27089;50.022;7.604;2023-01-16T13:21:01;4.40;99.90
41344;DHT22;27089;50.022;7.604;2023-01-16T13:23:32;4.30;99.90
41344;DHT22;27089;50.022;7.604;2023-01-16T13:26:02;4.30;99.90
41344;DHT22;27089;50.022;7.604;2023-01-16T13:28:42;4.20;99.90
41344;DHT22;27089;50.022;7.604;2023-01-16T13:31:20;4.30;99.90
41344;DHT22;27089;50.022;7.604;2023-01-16T13:33:55;4.20;99.90
41344;DHT22;27089;50.022;7.604;2023-01-16T13:36:41;4.20;99.90
41344;DHT22;27089;50.022;7.604;2023-01-16T13:39:44;4.20;99.90
41344;DHT22;27089;50.022;7.604;2023-01-16T13:42:17;4.20;99.90
41344;DHT22;27089;50.022;7.604;2023-01-16T13:44:48;4.20;99.90
41344;DHT22;27089;50.022;7.604;2023-01-16T13:47:37;4.20;99.90
41344;DHT22;27089;50.022;7.604;2023-01-16T13:50:07;4.10;99.90
41344;DHT22;27089;50.022;7.604;2023-01-16T13:52:41;4.10;99.90
41344;DHT22;27089;50.022;7.604;2023-01-16T13:55:20;4.10;99.90
41344;DHT22;27089;50.022;7.604;2023-01-16T13:57:53;4.10;99.90
41344;DHT22;27089;50.022;7.604;2023-01-16T14:00:21;4.10;99.90
41344;DHT22;27089;50.022;7.604;2023-01-16T14:03:02;4.10;99.90
41344;DHT22;27089;50.022;7.604;2023-01-16T14:05:44;4.00;99.90
41344;DHT22;27089;50.022;7.604;2023-01-16T14:08:45;4.10;99.90
41344;DHT22;27089;50.022;7.604;2023-01-16T14:11:38;4.10;99.90
41344;DHT22;27089;50.022;7.604;2023-01-16T14:14:29;4.20;99.90
41344;DHT22;27089;50.022;7.604;2023-01-16T14:17:15;4.20;99.90
41344;DHT22;27089;50.022;7.604;2023-01-16T14:19:52;4.30;99.90
41344;DHT22;27089;50.022;7.604;2023-01-16T14:22:22;4.30;99.90
41344;DHT22;27089;50.022;7.604;2023-01-16T14:25:20;4.30;99.90
41344;DHT22;27089;50.022;7.604;2023-01-16T14:27:51;4.30;99.90
41344;DHT22;27089;50.022;7.604;2023-01-16T14:30:24;4.20;99.90
41344;DHT22;27089;50.022;7.604;2023-01-16T14:32:54;4.20;99.90
41344;DHT22;27089;50.022;7.604;2023-01-16T14:35:24;4.20;99.90
41344;DHT22;27089;50.022;7.604;2023-01-16T14:37:58;4.20;99.90
41344;DHT22;27089;50.022;7.604;2023-01-16T14:40:27;4.20;99.90
41344;DHT22;27089;50.022;7.604;2023-01-16T14:43:13;4.20;99.90
41344;DHT22;27089;50.022;7.604;2023-01-16T14:46:26;4.10;99.90
41344;DHT22;27089;50.022;7.604;2023-01-16T14:49:57;4.00;99.90
41344;DHT22;27089;50.022;7.604;2023-01-16T14:52:45;4.00;99.90
41344;DHT22;27089;50.022;7.604;2023-01-16T14:55:33;3.90;99.90
41344;DHT22;27089;50.022;7.604;2023-01-16T14:58:08;3.90;99.90
41344;DHT22;27089;50.022;7.604;2023-01-16T15:00:37;3.90;99.90
41344;DHT22;27089;50.022;7.604;2023-01-16T15:03:11;3.90;99.90
41344;DHT22;27089;50.022;7.604;2023-01-16T15:05:45;3.80;99.90
41344;DHT22;27089;50.022;7.604;2023-01-16T15:08:23;3.90;99.90
41344;DHT22;27089;50.022;7.604;2023-01-16T15:10:53;3.80;99.90
41344;DHT22;27089;50.022;7.604;2023-01-16T15:13:23;3.70;99.90
41344;DHT22;27089;50.022;7.604;2023-01-16T15:15:55;3.70;99.90
41344;DHT22;27089;50.022;7.604;2023-01-16T15:18:25;3.70;99.90
41344;DHT22;27089;50.022;7.604;2023-01-16T15:21:12;3.70;99.90
41344;DHT22;27089;50.022;7.604;2023-01-16T15:23:58;3.70;99.90
41344;DHT22;27089;50.022;7.604;2023-01-16T15:26:51;3.70;99.90
41344;DHT22;27089;50.022;7.604;2023-01-16T15:29:34;3.70;99.90
41344;DHT22;27089;50.022;7.604;2023-01-16T15:32:09;3.70;99.90
41344;DHT22;27089;50.022;7.604;2023-01-16T15:34:43;3.70;99.90
41344;DHT22;27089;50.022;7.604;2023-01-16T15:37:20;3.80;99.90
41344;DHT22;27089;50.022;7.604;2023-01-16T15:39:49;3.90;99.90
41344;DHT22;27089;50.022;7.604;2023-01-16T15:42:20;3.90;99.90
41344;DHT22;27089;50.022;7.604;2023-01-16T15:45:16;3.90;99.90
41344;DHT22;27089;50.022;7.604;2023-01-16T15:48:20;3.90;99.90
41344;DHT22;27089;50.022;7.604;2023-01-16T15:50:55;3.90;99.90
41344;DHT22;27089;50.022;7.604;2023-01-16T15:53:25;3.90;99.90
41344;DHT22;27089;50.022;7.604;2023-01-16T15:56:00;3.80;99.90
41344;DHT22;27089;50.022;7.604;2023-01-16T15:58:28;3.80;99.90
41344;DHT22;27089;50.022;7.604;2023-01-16T16:00:57;3.70;99.90
41344;DHT22;27089;50.022;7.604;2023-01-16T16:03:28;3.70;99.90
41344;DHT22;27089;50.022;7.604;2023-01-16T16:06:00;3.70;99.90
41344;DHT22;27089;50.022;7.604;2023-01-16T16:08:31;3.70;99.90
41344;DHT22;27089;50.022;7.604;2023-01-16T16:11:00;3.70;99.90
41344;DHT22;27089;50.022;7.604;2023-01-16T16:13:47;3.70;99.90
41344;DHT22;27089;50.022;7.604;2023-01-16T16:16:17;3.70;99.90
41344;DHT22;27089;50.022;7.604;2023-01-16T16:19:03;3.70;99.90
41344;DHT22;27089;50.022;7.604;2023-01-16T16:21:34;3.70;99.90
41344;DHT22;27089;50.022;7.604;2023-01-16T16:24:04;3.70;99.90
41344;DHT22;27089;50.022;7.604;2023-01-16T16:26:38;3.70;99.90
41344;DHT22;27089;50.022;7.604;2023-01-16T16:29:14;3.70;99.90
41344;DHT22;27089;50.022;7.604;2023-01-16T16:31:43;3.70;99.90
41344;DHT22;27089;50.022;7.604;2023-01-16T16:34:15;3.70;99.90
41344;DHT22;27089;50.022;7.604;2023-01-16T16:36:47;3.70;99.90
41344;DHT22;27089;50.022;7.604;2023-01-16T16:39:30;3.70;99.90